Time;durP1;ratioP1;P1;durP2;ratioP2;P2;SDS_P1;SDS_P2;PMS_P1;PMS_P2;Temp;Humidity;BMP_temperature;BMP_pressure;BME280_temperature;BME280_humidity;BME280_pressure;Samples;Min_cycle;Max_cycle;Signal;HPM_P1;HPM_P2
2021/06/06 00:00:13;;;;;;;6.13;5.57;;;23.10;87.00;;;;;;4988005;28;20214;-76
2021/06/06 00:02:39;;;;;;;5.90;5.30;;;23.10;87.30;;;;;;4988238;28;20194;-76
2021/06/06 00:05:07;;;;;;;5.88;5.47;;;23.10;87.50;;;;;;4987858;28;20238;-75
2021/06/06 00:07:33;;;;;;;5.88;5.40;;;23.00;87.40;;;;;;4988020;28;20210;-75
2021/06/06 00:09:59;;;;;;;5.88;5.20;;;23.00;87.60;;;;;;4987959;28;20202;-75
2021/06/06 00:12:26;;;;;;;6.22;5.63;;;23.00;87.90;;;;;;4987700;28;20238;-75
2021/06/06 00:14:55;;;;;;;6.57;5.03;;;23.00;88.00;;;;;;4987420;28;20728;-73
2021/06/06 00:17:21;;;;;;;5.60;5.20;;;22.90;88.00;;;;;;4987458;28;20220;-74
2021/06/06 00:19:48;;;;;;;5.85;5.22;;;22.90;88.00;;;;;;4987650;28;20256;-73
2021/06/06 00:22:14;;;;;;;7.30;5.07;;;22.80;88.30;;;;;;4987457;28;20206;-73
2021/06/06 00:24:40;;;;;;;7.68;5.50;;;22.80;88.40;;;;;;4987640;28;20210;-73
2021/06/06 00:27:07;;;;;;;5.80;5.10;;;22.80;88.40;;;;;;4987467;28;20221;-73
2021/06/06 00:29:33;;;;;;;5.47;5.05;;;22.80;88.70;;;;;;4987045;28;20211;-73
2021/06/06 00:32:01;;;;;;;6.40;5.95;;;22.70;88.70;;;;;;4987387;28;20230;-73
2021/06/06 00:34:28;;;;;;;5.18;4.78;;;22.70;88.80;;;;;;4987366;28;20575;-73
2021/06/06 00:36:55;;;;;;;5.32;4.93;;;22.70;89.00;;;;;;4987074;28;20683;-73
2021/06/06 00:39:21;;;;;;;9.80;5.47;;;22.60;89.30;;;;;;4987335;28;20648;-73
2021/06/06 00:41:49;;;;;;;5.90;5.30;;;22.60;89.30;;;;;;4986957;28;20207;-74
2021/06/06 00:44:16;;;;;;;6.40;5.45;;;22.60;89.50;;;;;;4986968;28;20206;-76
2021/06/06 00:46:43;;;;;;;5.35;4.85;;;22.60;89.60;;;;;;4986972;28;20708;-74
2021/06/06 00:49:11;;;;;;;6.47;5.25;;;22.60;89.60;;;;;;4986680;28;20703;-73
2021/06/06 00:51:42;;;;;;;6.07;5.50;;;22.60;89.90;;;;;;4986943;28;20696;-74
2021/06/06 00:54:12;;;;;;;5.90;5.40;;;22.50;89.90;;;;;;4987154;28;20194;-74
2021/06/06 00:56:39;;;;;;;6.60;5.82;;;22.50;90.00;;;;;;4987253;28;20566;-74
2021/06/06 00:59:06;;;;;;;5.47;5.05;;;22.40;90.10;;;;;;4986936;28;20206;-74
2021/06/06 01:01:33;;;;;;;6.32;5.70;;;22.40;90.20;;;;;;4987041;28;20213;-73
2021/06/06 01:04:01;;;;;;;5.88;5.38;;;22.40;90.20;;;;;;4986658;28;20214;-74
2021/06/06 01:06:31;;;;;;;5.93;5.30;;;22.40;90.30;;;;;;4986878;28;20260;-74
2021/06/06 01:08:59;;;;;;;6.13;5.60;;;22.30;90.40;;;;;;4986822;28;20252;-73
2021/06/06 01:11:33;;;;;;;6.18;5.57;;;22.30;90.50;;;;;;4986763;28;20234;-73
2021/06/06 01:14:04;;;;;;;6.32;5.22;;;22.30;90.50;;;;;;4986564;28;20201;-72
2021/06/06 01:16:35;;;;;;;5.82;5.32;;;22.30;90.70;;;;;;4986983;28;20263;-72
2021/06/06 01:19:06;;;;;;;6.93;5.45;;;22.30;90.70;;;;;;4987085;28;20202;-73
2021/06/06 01:21:51;;;;;;;6.47;5.45;;;22.20;90.60;;;;;;4986520;28;20215;-74
2021/06/06 01:24:29;;;;;;;6.05;5.47;;;22.10;90.80;;;;;;4986640;28;20198;-75
2021/06/06 01:26:58;;;;;;;6.18;5.57;;;22.10;90.80;;;;;;4986673;28;20262;-76
2021/06/06 01:29:32;;;;;;;5.28;4.88;;;22.00;90.90;;;;;;4986572;28;20206;-75
2021/06/06 01:32:04;;;;;;;6.18;5.47;;;22.00;91.00;;;;;;4986293;28;20704;-76
2021/06/06 01:34:32;;;;;;;5.65;5.13;;;22.00;91.10;;;;;;4986640;28;20213;-75
2021/06/06 01:37:02;;;;;;;7.80;5.65;;;22.00;91.20;;;;;;4986672;28;20210;-72
2021/06/06 01:39:33;;;;;;;8.30;5.45;;;21.90;91.20;;;;;;4986500;28;20267;-73
2021/06/06 01:42:05;;;;;;;8.98;5.95;;;21.90;91.20;;;;;;4985585;28;20536;-72
2021/06/06 01:44:34;;;;;;;5.95;5.50;;;21.90;91.30;;;;;;4986321;28;20201;-73
2021/06/06 01:47:07;;;;;;;6.28;5.65;;;21.80;91.30;;;;;;4986204;28;20284;-73
2021/06/06 01:49:39;;;;;;;7.05;6.45;;;21.80;91.50;;;;;;4986092;28;20793;-73
2021/06/06 01:52:10;;;;;;;6.53;6.03;;;21.80;91.50;;;;;;4986014;28;20753;-73
2021/06/06 01:54:41;;;;;;;7.15;5.55;;;21.80;91.60;;;;;;4985979;28;20600;-73
2021/06/06 01:57:11;;;;;;;6.35;5.85;;;21.80;91.70;;;;;;4986174;28;20573;-73
2021/06/06 01:59:40;;;;;;;6.43;5.20;;;21.70;91.70;;;;;;4986394;28;20264;-74
2021/06/06 02:02:07;;;;;;;6.35;5.75;;;21.70;91.80;;;;;;4986373;28;20267;-73
2021/06/06 02:04:33;;;;;;;6.20;5.80;;;21.70;91.90;;;;;;4986083;28;20214;-73
2021/06/06 02:07:10;;;;;;;7.30;5.82;;;21.70;92.00;;;;;;4986434;28;20213;-73
2021/06/06 02:09:44;;;;;;;8.25;6.45;;;21.70;92.00;;;;;;4986070;28;20190;-73
2021/06/06 02:12:11;;;;;;;6.25;5.75;;;21.70;92.10;;;;;;4985878;28;20753;-73
2021/06/06 02:14:40;;;;;;;6.20;5.70;;;21.60;92.20;;;;;;4986123;28;20226;-73
2021/06/06 02:17:10;;;;;;;5.82;5.40;;;21.60;92.30;;;;;;4985925;28;20206;-73
2021/06/06 02:19:39;;;;;;;6.60;6.00;;;21.60;92.40;;;;;;4985973;28;20203;-75
2021/06/06 02:22:09;;;;;;;6.68;6.05;;;21.60;92.30;;;;;;4986217;28;20206;-75
2021/06/06 02:24:36;;;;;;;7.15;6.35;;;21.60;92.40;;;;;;4985577;28;20750;-75
2021/06/06 02:27:11;;;;;;;5.55;5.15;;;21.50;92.40;;;;;;4985665;28;20616;-75
2021/06/06 02:29:48;;;;;;;6.90;6.30;;;21.50;92.50;;;;;;4986165;28;20202;-75
2021/06/06 02:32:20;;;;;;;6.53;6.00;;;21.50;92.50;;;;;;4985955;28;20261;-75
2021/06/06 02:34:52;;;;;;;6.22;5.80;;;21.40;92.60;;;;;;4985713;28;20666;-75
2021/06/06 02:37:22;;;;;;;6.43;5.83;;;21.40;92.60;;;;;;4985687;28;20225;-75
2021/06/06 02:39:55;;;;;;;7.43;6.40;;;21.40;92.70;;;;;;4985668;28;20649;-75
2021/06/06 02:42:26;;;;;;;7.03;5.65;;;21.40;92.80;;;;;;4985702;28;20218;-75
2021/06/06 02:44:55;;;;;;;6.30;5.90;;;21.30;92.90;;;;;;4985663;28;20191;-75
2021/06/06 02:47:26;;;;;;;6.95;6.45;;;21.30;93.00;;;;;;4985593;28;20191;-75
2021/06/06 02:49:54;;;;;;;6.33;5.80;;;21.30;93.00;;;;;;4985715;28;20234;-75
2021/06/06 02:52:38;;;;;;;7.00;6.30;;;21.30;93.20;;;;;;4985470;28;20233;-75
2021/06/06 02:55:07;;;;;;;6.75;6.22;;;21.30;93.40;;;;;;4989175;28;20343;-75
2021/06/06 02:57:36;;;;;;;7.13;6.45;;;21.30;93.60;;;;;;4988949;28;20589;-75
2021/06/06 03:00:10;;;;;;;7.53;6.25;;;21.30;93.70;;;;;;4988978;28;20214;-75
2021/06/06 03:02:39;;;;;;;7.35;6.72;;;21.30;93.40;;;;;;4989206;28;20205;-75
2021/06/06 03:05:09;;;;;;;6.70;6.20;;;21.30;93.10;;;;;;4988857;28;20211;-75
2021/06/06 03:07:38;;;;;;;6.90;6.30;;;21.30;93.20;;;;;;4988824;28;20295;-75
2021/06/06 03:10:07;;;;;;;7.20;6.60;;;21.30;93.30;;;;;;4988750;28;20202;-75
2021/06/06 03:12:36;;;;;;;7.85;7.15;;;21.30;93.50;;;;;;4988511;28;20233;-73
2021/06/06 03:15:06;;;;;;;7.70;7.10;;;21.30;93.40;;;;;;4988704;28;20237;-73
2021/06/06 03:17:35;;;;;;;7.90;7.25;;;21.30;93.30;;;;;;4988959;28;20206;-73
2021/06/06 03:20:08;;;;;;;8.80;6.32;;;21.30;93.00;;;;;;4988800;28;20210;-73
2021/06/06 03:22:37;;;;;;;6.90;6.30;;;21.30;93.20;;;;;;4988561;28;20206;-72
2021/06/06 03:25:07;;;;;;;7.88;7.13;;;21.30;93.40;;;;;;4988333;28;20210;-72
2021/06/06 03:27:38;;;;;;;7.47;6.63;;;21.30;93.40;;;;;;4988735;28;20214;-72
2021/06/06 03:30:08;;;;;;;8.07;7.35;;;21.30;93.50;;;;;;4988556;28;20256;-72
2021/06/06 03:32:38;;;;;;;7.65;7.05;;;21.30;93.60;;;;;;4988398;28;20231;-72
2021/06/06 03:35:06;;;;;;;7.60;7.10;;;21.30;93.40;;;;;;4988664;28;20210;-72
2021/06/06 03:37:32;;;;;;;7.75;6.97;;;21.20;93.20;;;;;;4988184;28;20232;-72
2021/06/06 03:39:59;;;;;;;7.88;7.18;;;21.20;93.20;;;;;;4987937;28;20657;-72
2021/06/06 03:42:26;;;;;;;7.67;7.00;;;21.20;93.40;;;;;;4988140;28;20218;-72
2021/06/06 03:44:53;;;;;;;8.35;7.53;;;21.20;93.20;;;;;;4988218;28;20206;-72
2021/06/06 03:47:20;;;;;;;8.18;7.40;;;21.20;93.20;;;;;;4988176;28;20194;-72
2021/06/06 03:49:46;;;;;;;8.00;7.40;;;21.30;92.90;;;;;;4988153;28;20226;-72
2021/06/06 03:52:12;;;;;;;9.52;7.28;;;21.30;92.90;;;;;;4988311;28;20312;-75
2021/06/06 03:54:38;;;;;;;8.55;6.88;;;21.30;92.90;;;;;;4987985;28;20210;-74
2021/06/06 03:57:06;;;;;;;8.77;6.90;;;21.20;93.10;;;;;;4988176;28;20217;-72
2021/06/06 03:59:32;;;;;;;7.90;7.27;;;21.20;93.40;;;;;;4987569;28;20209;-73
2021/06/06 04:01:59;;;;;;;8.35;7.60;;;21.20;93.20;;;;;;4987985;28;20214;-74
2021/06/06 04:04:26;;;;;;;7.93;6.90;;;21.20;93.40;;;;;;4987151;28;20252;-73
2021/06/06 04:06:52;;;;;;;8.90;7.90;;;21.20;93.50;;;;;;4987967;28;20272;-73
2021/06/06 04:09:19;;;;;;;8.50;7.73;;;21.20;93.40;;;;;;4987728;28;20209;-73
2021/06/06 04:11:45;;;;;;;8.27;7.68;;;21.10;93.40;;;;;;4987808;28;20257;-74
2021/06/06 04:14:11;;;;;;;8.38;7.60;;;21.10;93.50;;;;;;4987793;28;20230;-74
2021/06/06 04:16:37;;;;;;;8.65;7.95;;;21.00;93.50;;;;;;4987605;28;20210;-74
2021/06/06 04:19:06;;;;;;;9.73;8.90;;;21.00;93.60;;;;;;4987830;28;20222;-74
2021/06/06 04:21:34;;;;;;;10.07;8.83;;;20.80;93.70;;;;;;4987596;28;20217;-74
2021/06/06 04:24:00;;;;;;;9.02;8.18;;;20.80;93.60;;;;;;4987554;28;20253;-74
2021/06/06 04:26:27;;;;;;;9.43;8.63;;;20.90;93.70;;;;;;4987213;28;20210;-74
2021/06/06 04:28:54;;;;;;;8.63;8.03;;;20.90;93.80;;;;;;4987265;28;20742;-73
2021/06/06 04:31:21;;;;;;;9.10;8.30;;;21.00;93.90;;;;;;4987429;28;20236;-74
2021/06/06 04:33:47;;;;;;;8.57;7.90;;;21.00;93.70;;;;;;4987521;28;20263;-74
2021/06/06 04:36:15;;;;;;;9.33;8.57;;;21.10;93.60;;;;;;4987629;28;20707;-75
2021/06/06 04:38:41;;;;;;;9.00;8.00;;;21.10;93.70;;;;;;4987692;28;20256;-74
2021/06/06 04:41:11;;;;;;;9.18;7.82;;;21.20;93.70;;;;;;4987547;28;20207;-72
2021/06/06 04:43:37;;;;;;;9.07;8.20;;;21.20;93.90;;;;;;4987400;28;20254;-72
2021/06/06 04:46:05;;;;;;;9.38;8.57;;;21.30;93.90;;;;;;4987094;28;20291;-75
2021/06/06 04:48:33;;;;;;;8.85;8.05;;;21.30;94.00;;;;;;4987270;28;20265;-75
2021/06/06 04:51:02;;;;;;;9.32;8.40;;;21.30;94.10;;;;;;4987326;28;20210;-75
2021/06/06 04:53:30;;;;;;;9.93;8.50;;;21.30;94.30;;;;;;4987497;28;20242;-75
2021/06/06 04:55:58;;;;;;;9.33;8.40;;;21.40;94.50;;;;;;4987259;28;20247;-75
2021/06/06 04:58:25;;;;;;;9.02;8.38;;;21.30;94.70;;;;;;4987221;28;20248;-75
2021/06/06 05:00:51;;;;;;;9.20;8.38;;;21.30;95.20;;;;;;4987084;28;20214;-75
2021/06/06 05:03:19;;;;;;;9.80;9.00;;;21.40;94.90;;;;;;4986985;28;20214;-75
2021/06/06 05:05:46;;;;;;;9.95;8.95;;;21.40;94.90;;;;;;4987025;28;20302;-75
2021/06/06 05:08:17;;;;;;;9.55;8.65;;;21.40;95.00;;;;;;4986953;28;20954;-75
2021/06/06 05:10:46;;;;;;;9.70;8.80;;;21.40;95.20;;;;;;4986873;28;20210;-75
2021/06/06 05:13:13;;;;;;;9.60;8.80;;;21.50;95.20;;;;;;4986977;28;20669;-75
2021/06/06 05:15:39;;;;;;;9.55;8.75;;;21.40;95.10;;;;;;4986511;28;20237;-76
2021/06/06 05:18:06;;;;;;;9.60;8.90;;;21.50;95.20;;;;;;4986205;28;20259;-75
2021/06/06 05:20:36;;;;;;;9.73;8.93;;;21.60;95.40;;;;;;4986488;28;20653;-75
2021/06/06 05:23:03;;;;;;;9.57;8.77;;;21.60;95.60;;;;;;4986877;28;20214;-75
2021/06/06 05:25:30;;;;;;;9.82;9.18;;;21.60;95.60;;;;;;4986592;28;20256;-75
2021/06/06 05:27:57;;;;;;;10.10;9.25;;;21.60;95.70;;;;;;4986777;28;20267;-75
2021/06/06 05:30:26;;;;;;;9.45;8.73;;;21.70;95.90;;;;;;4986417;28;20680;-76
2021/06/06 05:32:53;;;;;;;9.65;8.95;;;21.70;96.00;;;;;;4986503;28;20242;-73
2021/06/06 05:35:22;;;;;;;11.05;9.32;;;21.70;96.30;;;;;;4986412;28;20210;-73
2021/06/06 05:37:48;;;;;;;9.93;9.23;;;21.70;96.50;;;;;;4986553;28;20214;-73
2021/06/06 05:40:15;;;;;;;10.20;9.43;;;21.80;96.70;;;;;;4986679;28;20214;-73
2021/06/06 05:42:44;;;;;;;10.60;9.75;;;21.70;96.70;;;;;;4986212;28;20206;-73
2021/06/06 05:45:13;;;;;;;11.80;10.40;;;21.70;96.90;;;;;;4986333;28;20287;-73
2021/06/06 05:47:39;;;;;;;10.48;9.60;;;21.60;97.40;;;;;;4986275;28;20213;-73
2021/06/06 05:50:07;;;;;;;10.50;9.63;;;21.50;97.60;;;;;;4986491;28;20230;-73
2021/06/06 05:52:33;;;;;;;12.38;11.38;;;21.50;97.80;;;;;;4985856;28;20715;-72
2021/06/06 05:55:00;;;;;;;12.23;11.32;;;21.40;97.70;;;;;;4986366;28;20210;-72
2021/06/06 05:57:27;;;;;;;13.43;12.43;;;21.30;98.10;;;;;;4986220;28;20210;-72
2021/06/06 05:59:53;;;;;;;14.27;13.18;;;21.20;98.30;;;;;;4986494;28;20210;-72
2021/06/06 06:02:21;;;;;;;12.07;11.18;;;21.10;98.80;;;;;;4986161;28;20206;-75
2021/06/06 06:04:47;;;;;;;12.40;11.50;;;21.10;99.00;;;;;;4986215;28;20275;-75
2021/06/06 06:07:13;;;;;;;11.20;10.40;;;21.20;99.20;;;;;;4986117;28;20221;-75
2021/06/06 06:09:39;;;;;;;12.77;11.50;;;21.30;99.20;;;;;;4985856;28;20609;-74
2021/06/06 06:12:06;;;;;;;11.73;10.73;;;21.30;99.40;;;;;;4985987;28;20222;-73
2021/06/06 06:14:33;;;;;;;11.20;10.30;;;21.40;99.30;;;;;;4985993;28;20245;-73
2021/06/06 06:17:00;;;;;;;12.43;11.27;;;21.60;99.10;;;;;;4986033;28;20214;-73
2021/06/06 06:19:27;;;;;;;10.60;9.90;;;21.70;98.90;;;;;;4986093;28;20217;-75
2021/06/06 06:21:53;;;;;;;12.13;11.13;;;21.80;98.70;;;;;;4985954;28;20342;-73
2021/06/06 06:24:19;;;;;;;10.98;10.05;;;21.90;98.80;;;;;;4985833;28;20202;-73
2021/06/06 06:26:46;;;;;;;11.38;10.50;;;21.90;98.90;;;;;;4985695;28;20217;-73
2021/06/06 06:29:13;;;;;;;10.52;9.75;;;22.00;99.00;;;;;;4988339;28;20206;-73
2021/06/06 06:31:39;;;;;;;11.60;10.80;;;22.10;99.00;;;;;;4988816;28;20210;-73
2021/06/06 06:34:05;;;;;;;11.35;10.55;;;22.10;98.90;;;;;;4989080;28;20198;-73
2021/06/06 06:36:33;;;;;;;12.15;11.13;;;22.20;98.90;;;;;;4989095;28;20234;-72
2021/06/06 06:39:00;;;;;;;13.00;12.10;;;22.20;99.10;;;;;;4986507;28;20207;-72
2021/06/06 06:41:28;;;;;;;12.48;11.57;;;22.20;99.60;;;;;;4988538;28;20194;-73
2021/06/06 06:43:54;;;;;;;12.05;11.25;;;22.20;99.90;;;;;;4988475;28;20210;-73
2021/06/06 06:46:22;;;;;;;14.05;12.90;;;22.20;99.90;;;;;;4983938;28;20242;-75
2021/06/06 06:48:48;;;;;;;12.60;11.73;;;22.20;99.90;;;;;;4984217;28;20298;-75
2021/06/06 06:51:14;;;;;;;13.63;12.43;;;22.20;99.90;;;;;;4988030;28;20221;-74
2021/06/06 06:53:42;;;;;;;13.30;12.20;;;22.30;99.90;;;;;;4988529;28;20295;-76
2021/06/06 06:56:09;;;;;;;14.80;13.55;;;22.30;99.90;;;;;;4988865;28;20217;-76
2021/06/06 06:58:35;;;;;;;14.10;12.77;;;22.30;99.90;;;;;;4988631;28;20210;-75
2021/06/06 07:01:01;;;;;;;13.25;12.27;;;22.40;99.90;;;;;;4987866;28;20206;-73
2021/06/06 07:03:30;;;;;;;14.73;13.23;;;22.40;99.90;;;;;;4984704;28;20695;-74
2021/06/06 07:05:59;;;;;;;13.85;12.75;;;22.50;99.90;;;;;;4988705;28;20206;-76
2021/06/06 07:08:29;;;;;;;12.52;11.63;;;22.50;99.90;;;;;;4988447;28;20207;-74
2021/06/06 07:10:56;;;;;;;12.77;11.85;;;22.50;99.90;;;;;;4988780;28;20356;-74
2021/06/06 07:13:24;;;;;;;14.23;12.80;;;22.60;99.90;;;;;;4988338;28;22303;-75
2021/06/06 07:15:51;;;;;;;13.00;11.98;;;22.70;99.90;;;;;;4988141;28;20217;-75
2021/06/06 07:18:20;;;;;;;13.18;12.27;;;22.70;99.90;;;;;;4987974;28;20684;-75
2021/06/06 07:20:48;;;;;;;13.18;12.18;;;22.80;99.90;;;;;;4987929;28;20210;-75
2021/06/06 07:23:15;;;;;;;12.50;11.38;;;22.90;99.90;;;;;;4988633;28;20234;-78
2021/06/06 07:25:43;;;;;;;11.68;10.90;;;22.90;99.90;;;;;;4988726;28;20569;-78
2021/06/06 07:28:13;;;;;;;11.90;11.00;;;23.00;99.90;;;;;;4988458;28;20233;-77
2021/06/06 07:30:46;;;;;;;11.60;10.77;;;23.00;99.90;;;;;;4988427;28;20209;-77
2021/06/06 07:33:12;;;;;;;12.68;11.52;;;23.00;99.90;;;;;;4988446;28;20214;-78
2021/06/06 07:35:38;;;;;;;11.70;10.70;;;23.10;99.90;;;;;;4988127;28;20205;-77
2021/06/06 07:38:05;;;;;;;10.50;9.70;;;23.10;99.90;;;;;;4987760;28;20963;-77
2021/06/06 07:40:35;;;;;;;9.80;8.98;;;23.20;99.90;;;;;;4987009;28;20205;-78
2021/06/06 07:43:01;;;;;;;10.02;9.23;;;23.20;99.90;;;;;;4988234;28;20299;-77
2021/06/06 07:45:29;;;;;;;10.48;9.68;;;23.30;99.90;;;;;;4987884;28;20230;-78
2021/06/06 07:47:55;;;;;;;9.27;8.68;;;23.30;99.80;;;;;;4979813;28;20211;-76
2021/06/06 07:50:26;;;;;;;10.38;9.68;;;23.30;99.50;;;;;;4986158;28;20237;-77
2021/06/06 07:52:52;;;;;;;10.25;9.45;;;23.40;99.20;;;;;;4986614;28;20273;-78
2021/06/06 07:55:21;;;;;;;10.07;9.38;;;23.40;99.10;;;;;;4986611;28;20252;-78
2021/06/06 07:57:48;;;;;;;9.88;9.05;;;23.40;99.10;;;;;;4986467;28;20207;-73
2021/06/06 08:00:18;;;;;;;9.00;8.30;;;23.50;99.20;;;;;;4985846;28;20610;-73
2021/06/06 08:02:46;;;;;;;8.93;8.32;;;23.50;99.30;;;;;;4985872;28;20619;-73
2021/06/06 08:05:13;;;;;;;8.57;7.82;;;23.50;99.10;;;;;;4985735;28;20721;-73
2021/06/06 08:07:39;;;;;;;9.25;8.55;;;23.60;98.70;;;;;;4985682;28;20203;-73
2021/06/06 08:10:07;;;;;;;8.57;7.88;;;23.60;98.20;;;;;;4979030;28;20199;-73
2021/06/06 08:12:33;;;;;;;8.30;7.70;;;23.70;98.20;;;;;;4985434;28;20273;-73
2021/06/06 08:15:00;;;;;;;9.10;8.23;;;23.80;97.80;;;;;;4985789;28;20234;-73
2021/06/06 08:17:26;;;;;;;9.40;8.65;;;23.80;97.90;;;;;;4985476;28;20961;-73
2021/06/06 08:19:53;;;;;;;9.50;8.90;;;23.80;97.10;;;;;;4985731;28;20233;-73
2021/06/06 08:22:20;;;;;;;9.88;9.07;;;23.90;97.80;;;;;;4986166;28;20557;-73
2021/06/06 08:24:46;;;;;;;10.48;9.68;;;23.90;97.80;;;;;;4985764;28;20844;-73
2021/06/06 08:27:12;;;;;;;9.63;8.82;;;24.00;97.80;;;;;;4986203;28;20213;-73
2021/06/06 08:29:39;;;;;;;9.50;8.70;;;24.00;97.80;;;;;;4985863;28;20234;-73
2021/06/06 08:32:06;;;;;;;9.63;8.85;;;24.10;97.80;;;;;;4985689;28;20218;-73
2021/06/06 08:34:33;;;;;;;14.70;9.23;;;24.10;97.80;;;;;;4985612;28;20214;-73
2021/06/06 08:37:01;;;;;;;9.90;9.07;;;24.10;97.40;;;;;;4985596;28;20210;-73
2021/06/06 08:39:30;;;;;;;9.75;9.00;;;24.20;97.90;;;;;;4985224;28;20202;-73
2021/06/06 08:42:00;;;;;;;9.68;8.80;;;24.30;97.70;;;;;;4985835;28;20206;-74
2021/06/06 08:44:29;;;;;;;9.05;8.40;;;24.30;97.30;;;;;;4985880;28;20206;-73
2021/06/06 08:47:00;;;;;;;9.18;8.38;;;24.30;97.10;;;;;;4985690;28;20271;-73
2021/06/06 08:49:27;;;;;;;8.60;8.00;;;24.40;96.90;;;;;;4985647;28;20272;-73
2021/06/06 08:52:10;;;;;;;8.80;8.27;;;24.40;96.90;;;;;;4984763;28;20259;-73
2021/06/06 08:54:47;;;;;;;8.45;7.95;;;24.50;96.30;;;;;;4985229;28;20682;-73
2021/06/06 08:57:19;;;;;;;8.38;7.63;;;24.50;96.60;;;;;;4985091;28;20261;-73
2021/06/06 08:59:52;;;;;;;7.90;7.25;;;24.50;96.60;;;;;;4984514;28;20206;-75
2021/06/06 09:02:21;;;;;;;6.55;6.03;;;24.60;95.50;;;;;;4984827;28;20293;-75
2021/06/06 09:04:48;;;;;;;6.53;6.15;;;24.70;95.20;;;;;;4984600;28;20626;-73
2021/06/06 09:07:26;;;;;;;6.15;5.60;;;24.70;94.90;;;;;;4985046;28;20206;-73
2021/06/06 09:09:53;;;;;;;5.88;5.47;;;24.80;93.20;;;;;;4985068;28;20194;-73
2021/06/06 09:12:22;;;;;;;5.00;4.70;;;24.80;91.70;;;;;;4984935;28;20226;-73
2021/06/06 09:14:50;;;;;;;12.57;11.50;;;24.80;91.40;;;;;;4985032;28;20300;-73
2021/06/06 09:17:19;;;;;;;8.88;8.27;;;24.80;90.00;;;;;;4984974;28;20210;-73
2021/06/06 09:19:49;;;;;;;5.45;4.93;;;24.80;90.60;;;;;;4984620;28;20207;-73
2021/06/06 09:22:29;;;;;;;4.50;4.20;;;24.90;90.40;;;;;;4985109;28;20217;-73
2021/06/06 09:24:55;;;;;;;4.28;4.00;;;25.00;89.50;;;;;;4984758;28;20550;-73
2021/06/06 09:27:26;;;;;;;4.18;3.78;;;25.00;86.50;;;;;;4985449;28;20210;-73
2021/06/06 09:30:00;;;;;;;4.28;3.97;;;25.00;84.40;;;;;;4985240;28;20240;-73
2021/06/06 09:32:28;;;;;;;4.50;4.10;;;25.00;85.00;;;;;;4984542;28;20232;-73
2021/06/06 09:34:57;;;;;;;4.70;4.30;;;25.10;86.40;;;;;;4984913;28;20206;-74
2021/06/06 09:37:28;;;;;;;4.38;4.07;;;25.10;85.50;;;;;;4984151;28;20210;-73
2021/06/06 09:40:00;;;;;;;4.30;3.72;;;25.20;83.40;;;;;;4984040;28;20281;-73
2021/06/06 09:42:35;;;;;;;4.93;4.53;;;25.30;82.00;;;;;;4983964;28;20632;-73
2021/06/06 09:45:08;;;;;;;4.53;4.28;;;25.40;82.50;;;;;;4981899;28;20190;-73
2021/06/06 09:47:34;;;;;;;4.78;4.30;;;25.50;83.90;;;;;;4984024;28;20198;-73
2021/06/06 09:50:11;;;;;;;4.25;3.95;;;25.50;82.10;;;;;;4984125;28;20260;-73
2021/06/06 09:52:42;;;;;;;5.13;4.70;;;25.50;82.40;;;;;;4983130;28;20213;-73
2021/06/06 09:55:17;;;;;;;4.40;4.18;;;25.40;81.20;;;;;;4982603;28;20294;-73
2021/06/06 09:57:43;;;;;;;4.60;4.00;;;25.40;82.50;;;;;;4982441;28;20668;-74
2021/06/06 10:00:17;;;;;;;4.63;4.18;;;25.40;82.00;;;;;;4983333;28;20217;-73
2021/06/06 10:02:46;;;;;;;4.60;4.18;;;25.50;82.60;;;;;;4983345;28;20194;-73
2021/06/06 10:05:22;;;;;;;4.80;4.43;;;25.60;80.00;;;;;;4984631;28;20312;-73
2021/06/06 10:07:58;;;;;;;4.30;4.05;;;25.60;78.60;;;;;;4984877;28;20198;-73
2021/06/06 10:10:29;;;;;;;6.00;4.00;;;25.60;79.00;;;;;;4984674;28;20239;-74
2021/06/06 10:12:58;;;;;;;4.32;3.92;;;25.50;79.00;;;;;;4983981;28;20252;-73
2021/06/06 10:15:37;;;;;;;4.68;4.30;;;25.40;79.60;;;;;;4983957;28;20217;-73
2021/06/06 10:18:10;;;;;;;4.90;3.90;;;25.50;81.60;;;;;;4983906;28;20289;-73
2021/06/06 10:20:39;;;;;;;3.60;3.30;;;25.60;79.30;;;;;;4983853;28;20197;-73
2021/06/06 10:23:12;;;;;;;4.80;3.95;;;25.70;77.90;;;;;;4983547;28;20229;-71
2021/06/06 10:25:45;;;;;;;4.30;4.05;;;25.90;78.30;;;;;;4970173;28;20206;-72
2021/06/06 10:28:15;;;;;;;4.30;3.90;;;26.00;82.30;;;;;;4964172;28;20199;-72
2021/06/06 10:30:46;;;;;;;4.28;3.97;;;26.10;76.80;;;;;;4964208;28;20214;-73
2021/06/06 10:33:21;;;;;;;4.53;3.95;;;26.30;78.80;;;;;;4982513;28;20217;-73
2021/06/06 10:35:48;;;;;;;3.88;3.67;;;26.40;74.80;;;;;;4981368;28;20202;-73
2021/06/06 10:38:17;;;;;;;4.00;3.70;;;26.40;75.80;;;;;;4983434;28;20202;-73
2021/06/06 10:40:46;;;;;;;4.28;3.85;;;26.50;74.10;;;;;;4983623;28;20210;-74
2021/06/06 10:43:23;;;;;;;4.00;3.80;;;26.60;73.90;;;;;;4983174;28;20573;-73
2021/06/06 10:45:56;;;;;;;3.97;3.67;;;26.70;73.50;;;;;;4981852;28;20242;-73
2021/06/06 10:48:25;;;;;;;4.28;3.97;;;26.80;74.80;;;;;;4983072;28;20230;-73
2021/06/06 10:50:54;;;;;;;4.40;4.10;;;26.90;73.80;;;;;;4982901;28;20206;-73
2021/06/06 10:53:25;;;;;;;6.72;3.58;;;27.00;74.90;;;;;;4983322;28;20245;-73
2021/06/06 10:56:04;;;;;;;4.07;3.88;;;27.10;72.90;;;;;;4983579;28;20202;-73
2021/06/06 10:58:39;;;;;;;4.32;4.13;;;27.20;73.60;;;;;;4984039;28;20198;-73
2021/06/06 11:01:20;;;;;;;4.78;3.95;;;27.20;73.40;;;;;;4982956;28;20205;-74
2021/06/06 11:03:48;;;;;;;4.28;3.95;;;27.40;75.00;;;;;;4999622;28;20609;-73
2021/06/06 11:06:23;;;;;;;4.22;3.92;;;27.60;74.60;;;;;;5065003;28;20203;-73
2021/06/06 11:08:51;;;;;;;9.73;4.28;;;27.60;74.00;;;;;;5064998;28;20236;-73
2021/06/06 11:11:22;;;;;;;4.13;3.70;;;27.70;74.20;;;;;;5017440;28;20214;-73
2021/06/06 11:13:50;;;;;;;5.35;5.00;;;27.80;73.40;;;;;;4982744;28;20242;-73
2021/06/06 11:16:39;;;;;;;6.20;4.90;;;27.80;77.00;;;;;;4985435;28;20198;-73
2021/06/06 11:19:10;;;;;;;4.00;3.70;;;27.70;78.30;;;;;;4979434;28;20544;-73
2021/06/06 11:21:42;;;;;;;4.05;3.75;;;27.90;70.40;;;;;;4981771;28;20194;-73
2021/06/06 11:24:29;;;;;;;5.05;3.58;;;28.00;71.90;;;;;;4985583;28;20217;-73
2021/06/06 11:27:07;;;;;;;4.18;3.88;;;28.20;70.10;;;;;;4986270;28;20202;-73
2021/06/06 11:29:47;;;;;;;7.72;4.53;;;28.30;70.80;;;;;;4986110;28;20199;-73
2021/06/06 11:32:21;;;;;;;4.10;3.70;;;28.30;69.60;;;;;;4985981;28;20202;-74
2021/06/06 11:34:51;;;;;;;4.35;4.00;;;28.40;70.50;;;;;;4986039;28;20203;-74
2021/06/06 11:37:36;;;;;;;4.40;3.75;;;28.40;70.60;;;;;;4986437;28;20202;-74
2021/06/06 11:40:11;;;;;;;4.22;3.90;;;28.40;69.00;;;;;;4986621;28;20221;-74
2021/06/06 11:42:40;;;;;;;6.63;3.97;;;28.40;66.70;;;;;;4985952;28;20586;-73
2021/06/06 11:45:10;;;;;;;5.10;4.07;;;28.20;67.90;;;;;;4985669;28;20246;-74
2021/06/06 11:47:44;;;;;;;4.05;3.70;;;28.10;69.30;;;;;;4985624;28;20207;-73
2021/06/06 11:50:14;;;;;;;4.57;4.25;;;28.00;70.50;;;;;;4985726;28;20206;-73
2021/06/06 11:52:44;;;;;;;7.25;4.68;;;28.00;71.90;;;;;;4986055;28;20234;-73
2021/06/06 11:55:16;;;;;;;5.07;4.78;;;27.90;71.00;;;;;;4982868;28;20762;-73
2021/06/06 11:57:49;;;;;;;7.00;3.95;;;27.70;70.00;;;;;;4985598;28;20244;-73
2021/06/06 12:00:21;;;;;;;4.20;3.90;;;27.60;70.00;;;;;;4985593;28;20235;-73
2021/06/06 12:02:47;;;;;;;4.30;4.00;;;27.60;70.60;;;;;;4985466;28;20675;-73
2021/06/06 12:05:17;;;;;;;3.88;3.63;;;27.60;71.60;;;;;;4985295;28;20210;-73
2021/06/06 12:07:44;;;;;;;4.20;3.65;;;27.70;69.30;;;;;;4985692;28;20252;-73
2021/06/06 12:10:28;;;;;;;4.25;3.85;;;27.70;70.50;;;;;;4985580;28;20206;-73
2021/06/06 12:12:57;;;;;;;4.10;3.75;;;27.80;68.90;;;;;;4985390;28;20280;-73
2021/06/06 12:15:28;;;;;;;4.05;3.85;;;27.90;69.80;;;;;;4985682;28;20210;-73
2021/06/06 12:18:08;;;;;;;3.60;3.40;;;27.90;70.30;;;;;;4985731;28;20720;-73
2021/06/06 12:20:48;;;;;;;3.70;3.50;;;28.00;67.10;;;;;;4985905;28;20205;-73
2021/06/06 12:23:14;;;;;;;3.78;3.58;;;28.00;67.50;;;;;;4982274;28;20289;-73
2021/06/06 12:25:42;;;;;;;4.45;3.88;;;28.00;67.50;;;;;;4983913;28;20226;-73
2021/06/06 12:28:14;;;;;;;4.03;3.83;;;28.10;67.30;;;;;;4985284;28;20214;-74
2021/06/06 12:30:53;;;;;;;3.58;3.28;;;28.10;67.00;;;;;;4985462;28;20209;-74
2021/06/06 12:33:28;;;;;;;4.18;3.70;;;28.20;67.40;;;;;;4985370;28;20226;-75
2021/06/06 12:35:59;;;;;;;5.97;4.28;;;28.20;68.40;;;;;;4985165;28;20260;-73
2021/06/06 12:38:26;;;;;;;4.00;3.70;;;28.20;65.00;;;;;;4985460;28;20202;-73
2021/06/06 12:40:55;;;;;;;3.65;3.35;;;28.30;66.90;;;;;;4985620;28;20238;-73
2021/06/06 12:43:26;;;;;;;3.92;3.72;;;28.30;65.90;;;;;;4985568;28;20256;-73
2021/06/06 12:45:54;;;;;;;3.58;3.38;;;28.40;65.50;;;;;;4984953;28;20724;-73
2021/06/06 12:48:29;;;;;;;4.13;3.80;;;28.30;65.20;;;;;;4984807;28;20226;-73
2021/06/06 12:50:56;;;;;;;4.18;3.88;;;28.20;65.20;;;;;;4984857;28;20637;-73
2021/06/06 12:53:27;;;;;;;3.60;3.30;;;28.00;66.20;;;;;;4984930;28;20269;-73